sensor_id;sensor_type;location;lat;lon;timestamp;temperature;humidity
3868;DHT22;1949;48.152;11.528;2022-12-29T00:02:15;10.60;41.00
3868;DHT22;1949;48.152;11.528;2022-12-29T00:04:54;10.40;40.90
3868;DHT22;1949;48.152;11.528;2022-12-29T00:07:20;10.60;41.10
3868;DHT22;1949;48.152;11.528;2022-12-29T00:09:46;10.60;41.10
3868;DHT22;1949;48.152;11.528;2022-12-29T00:12:13;10.70;41.10
3868;DHT22;1949;48.152;11.528;2022-12-29T00:14:39;10.70;41.00
3868;DHT22;1949;48.152;11.528;2022-12-29T00:17:24;10.70;40.90
3868;DHT22;1949;48.152;11.528;2022-12-29T00:19:50;10.70;40.90
3868;DHT22;1949;48.152;11.528;2022-12-29T00:22:34;10.70;40.90
3868;DHT22;1949;48.152;11.528;2022-12-29T00:25:18;10.70;40.90
3868;DHT22;1949;48.152;11.528;2022-12-29T00:28:03;10.70;41.00
3868;DHT22;1949;48.152;11.528;2022-12-29T00:30:47;10.70;40.90
3868;DHT22;1949;48.152;11.528;2022-12-29T00:33:33;10.80;40.90
3868;DHT22;1949;48.152;11.528;2022-12-29T00:36:44;10.80;40.80
3868;DHT22;1949;48.152;11.528;2022-12-29T00:39:12;10.80;40.80
3868;DHT22;1949;48.152;11.528;2022-12-29T00:42:03;10.80;40.80
3868;DHT22;1949;48.152;11.528;2022-12-29T00:45:05;10.70;40.60
3868;DHT22;1949;48.152;11.528;2022-12-29T00:47:30;10.70;40.60
3868;DHT22;1949;48.152;11.528;2022-12-29T00:49:56;10.70;40.60
3868;DHT22;1949;48.152;11.528;2022-12-29T00:52:23;10.70;40.80
3868;DHT22;1949;48.152;11.528;2022-12-29T00:54:48;10.70;40.70
3868;DHT22;1949;48.152;11.528;2022-12-29T00:57:14;10.70;40.70
3868;DHT22;1949;48.152;11.528;2022-12-29T00:59:41;10.70;40.50
3868;DHT22;1949;48.152;11.528;2022-12-29T01:02:08;10.70;40.50
3868;DHT22;1949;48.152;11.528;2022-12-29T01:04:34;10.60;40.50
3868;DHT22;1949;48.152;11.528;2022-12-29T01:07:00;10.60;40.50
3868;DHT22;1949;48.152;11.528;2022-12-29T01:09:26;10.60;40.50
3868;DHT22;1949;48.152;11.528;2022-12-29T01:12:11;10.60;40.50
3868;DHT22;1949;48.152;11.528;2022-12-29T01:14:38;10.60;40.50
3868;DHT22;1949;48.152;11.528;2022-12-29T01:17:04;10.50;40.40
3868;DHT22;1949;48.152;11.528;2022-12-29T01:19:31;10.50;40.50
3868;DHT22;1949;48.152;11.528;2022-12-29T01:21:57;10.50;40.40
3868;DHT22;1949;48.152;11.528;2022-12-29T01:24:23;10.50;40.40
3868;DHT22;1949;48.152;11.528;2022-12-29T01:26:49;10.50;40.40
3868;DHT22;1949;48.152;11.528;2022-12-29T01:29:15;10.50;40.50
3868;DHT22;1949;48.152;11.528;2022-12-29T01:31:41;10.50;40.50
3868;DHT22;1949;48.152;11.528;2022-12-29T01:34:07;10.50;40.50
3868;DHT22;1949;48.152;11.528;2022-12-29T01:36:32;10.50;40.30
3868;DHT22;1949;48.152;11.528;2022-12-29T01:38:58;10.50;40.30
3868;DHT22;1949;48.152;11.528;2022-12-29T01:41:24;10.50;40.30
3868;DHT22;1949;48.152;11.528;2022-12-29T01:43:52;10.50;40.30
3868;DHT22;1949;48.152;11.528;2022-12-29T01:46:49;10.50;40.30
3868;DHT22;1949;48.152;11.528;2022-12-29T01:49:18;10.40;40.30
3868;DHT22;1949;48.152;11.528;2022-12-29T01:51:52;10.40;40.20
3868;DHT22;1949;48.152;11.528;2022-12-29T01:54:30;10.40;40.30
3868;DHT22;1949;48.152;11.528;2022-12-29T01:57:02;10.40;40.30
3868;DHT22;1949;48.152;11.528;2022-12-29T01:59:33;10.50;40.40
3868;DHT22;1949;48.152;11.528;2022-12-29T02:02:01;10.50;40.30
3868;DHT22;1949;48.152;11.528;2022-12-29T02:04:31;10.50;40.30
3868;DHT22;1949;48.152;11.528;2022-12-29T02:07:04;10.50;40.20
3868;DHT22;1949;48.152;11.528;2022-12-29T02:09:31;10.50;40.20
3868;DHT22;1949;48.152;11.528;2022-12-29T02:11:58;10.50;40.30
3868;DHT22;1949;48.152;11.528;2022-12-29T02:14:24;10.50;40.30
3868;DHT22;1949;48.152;11.528;2022-12-29T02:16:54;10.50;40.10
3868;DHT22;1949;48.152;11.528;2022-12-29T02:41:24;10.50;40.10
3868;DHT22;1949;48.152;11.528;2022-12-29T02:44:11;10.50;40.10
3868;DHT22;1949;48.152;11.528;2022-12-29T02:46:56;10.50;40.00
3868;DHT22;1949;48.152;11.528;2022-12-29T02:49:34;10.50;40.00
3868;DHT22;1949;48.152;11.528;2022-12-29T02:52:10;10.50;40.00
3868;DHT22;1949;48.152;11.528;2022-12-29T02:54:38;10.50;40.00
3868;DHT22;1949;48.152;11.528;2022-12-29T02:57:27;10.50;40.00
3868;DHT22;1949;48.152;11.528;2022-12-29T02:59:58;10.50;39.90
3868;DHT22;1949;48.152;11.528;2022-12-29T03:05:15;10.60;40.00
3868;DHT22;1949;48.152;11.528;2022-12-29T03:13:43;10.70;40.00
3868;DHT22;1949;48.152;11.528;2022-12-29T03:16:49;10.70;39.80
3868;DHT22;1949;48.152;11.528;2022-12-29T03:19:25;10.80;39.90
3868;DHT22;1949;48.152;11.528;2022-12-29T03:21:55;10.80;39.80
3868;DHT22;1949;48.152;11.528;2022-12-29T03:24:50;10.80;39.70
3868;DHT22;1949;48.152;11.528;2022-12-29T03:27:24;10.80;39.70
3868;DHT22;1949;48.152;11.528;2022-12-29T03:30:00;10.80;39.70
3868;DHT22;1949;48.152;11.528;2022-12-29T03:32:31;10.90;39.70
3868;DHT22;1949;48.152;11.528;2022-12-29T03:34:58;10.90;39.70
3868;DHT22;1949;48.152;11.528;2022-12-29T03:37:28;10.90;39.60
3868;DHT22;1949;48.152;11.528;2022-12-29T03:39:56;10.90;39.50
3868;DHT22;1949;48.152;11.528;2022-12-29T03:42:27;10.90;39.60
3868;DHT22;1949;48.152;11.528;2022-12-29T03:44:56;10.90;39.60
3868;DHT22;1949;48.152;11.528;2022-12-29T03:47:23;10.90;39.50
3868;DHT22;1949;48.152;11.528;2022-12-29T03:49:50;10.90;39.50
3868;DHT22;1949;48.152;11.528;2022-12-29T03:52:16;10.90;39.50
3868;DHT22;1949;48.152;11.528;2022-12-29T03:54:42;10.90;39.50
3868;DHT22;1949;48.152;11.528;2022-12-29T03:57:10;11.00;39.50
3868;DHT22;1949;48.152;11.528;2022-12-29T03:59:36;11.00;39.50
3868;DHT22;1949;48.152;11.528;2022-12-29T04:02:05;11.00;39.40
3868;DHT22;1949;48.152;11.528;2022-12-29T04:04:30;11.10;39.50
3868;DHT22;1949;48.152;11.528;2022-12-29T04:06:57;11.10;39.40
3868;DHT22;1949;48.152;11.528;2022-12-29T04:09:23;11.10;39.20
3868;DHT22;1949;48.152;11.528;2022-12-29T04:11:49;11.10;39.20
3868;DHT22;1949;48.152;11.528;2022-12-29T04:14:15;11.10;39.10
3868;DHT22;1949;48.152;11.528;2022-12-29T04:16:42;11.10;39.30
3868;DHT22;1949;48.152;11.528;2022-12-29T04:19:08;11.10;39.20
3868;DHT22;1949;48.152;11.528;2022-12-29T04:21:34;11.10;39.20
3868;DHT22;1949;48.152;11.528;2022-12-29T04:24:00;11.10;39.30
3868;DHT22;1949;48.152;11.528;2022-12-29T04:26:25;11.10;39.20
3868;DHT22;1949;48.152;11.528;2022-12-29T04:28:53;11.10;39.20
3868;DHT22;1949;48.152;11.528;2022-12-29T04:31:19;11.10;39.10
3868;DHT22;1949;48.152;11.528;2022-12-29T04:33:45;11.10;39.10
3868;DHT22;1949;48.152;11.528;2022-12-29T04:36:15;11.20;39.10
3868;DHT22;1949;48.152;11.528;2022-12-29T04:38:41;11.10;38.90
3868;DHT22;1949;48.152;11.528;2022-12-29T04:41:07;11.20;39.10
3868;DHT22;1949;48.152;11.528;2022-12-29T04:43:34;11.20;39.00
3868;DHT22;1949;48.152;11.528;2022-12-29T04:45:59;11.20;39.00
3868;DHT22;1949;48.152;11.528;2022-12-29T04:48:26;11.20;39.00
3868;DHT22;1949;48.152;11.528;2022-12-29T04:50:52;11.20;39.00
3868;DHT22;1949;48.152;11.528;2022-12-29T04:53:20;11.20;39.00
3868;DHT22;1949;48.152;11.528;2022-12-29T04:55:50;11.20;38.90
3868;DHT22;1949;48.152;11.528;2022-12-29T04:58:19;11.20;39.00
3868;DHT22;1949;48.152;11.528;2022-12-29T05:00:44;11.30;39.00
3868;DHT22;1949;48.152;11.528;2022-12-29T05:03:14;11.20;38.80
3868;DHT22;1949;48.152;11.528;2022-12-29T05:05:40;11.30;38.90
3868;DHT22;1949;48.152;11.528;2022-12-29T05:08:06;11.30;38.90
3868;DHT22;1949;48.152;11.528;2022-12-29T05:10:32;11.30;38.90
3868;DHT22;1949;48.152;11.528;2022-12-29T05:12:58;11.30;38.90
3868;DHT22;1949;48.152;11.528;2022-12-29T05:15:23;11.30;38.80
3868;DHT22;1949;48.152;11.528;2022-12-29T05:17:49;11.30;38.80
3868;DHT22;1949;48.152;11.528;2022-12-29T05:20:15;11.30;38.80
3868;DHT22;1949;48.152;11.528;2022-12-29T05:22:40;11.30;38.90
3868;DHT22;1949;48.152;11.528;2022-12-29T05:25:06;11.30;38.70
3868;DHT22;1949;48.152;11.528;2022-12-29T05:27:32;11.30;38.70
3868;DHT22;1949;48.152;11.528;2022-12-29T05:29:58;11.30;38.80
3868;DHT22;1949;48.152;11.528;2022-12-29T05:32:24;11.40;38.90
3868;DHT22;1949;48.152;11.528;2022-12-29T05:34:50;11.40;38.80
3868;DHT22;1949;48.152;11.528;2022-12-29T05:37:16;11.40;38.70
3868;DHT22;1949;48.152;11.528;2022-12-29T05:39:42;11.40;38.60
3868;DHT22;1949;48.152;11.528;2022-12-29T05:42:08;11.30;38.50
3868;DHT22;1949;48.152;11.528;2022-12-29T05:44:33;11.40;38.60
3868;DHT22;1949;48.152;11.528;2022-12-29T05:46:59;11.40;38.70
3868;DHT22;1949;48.152;11.528;2022-12-29T05:49:24;11.40;38.70
3868;DHT22;1949;48.152;11.528;2022-12-29T05:51:50;11.40;38.60
3868;DHT22;1949;48.152;11.528;2022-12-29T05:54:16;11.50;38.60
3868;DHT22;1949;48.152;11.528;2022-12-29T05:56:42;11.40;38.60
3868;DHT22;1949;48.152;11.528;2022-12-29T05:59:08;11.40;38.50
3868;DHT22;1949;48.152;11.528;2022-12-29T06:01:34;11.40;38.40
3868;DHT22;1949;48.152;11.528;2022-12-29T06:04:00;11.40;38.50
3868;DHT22;1949;48.152;11.528;2022-12-29T06:06:26;11.40;38.50
3868;DHT22;1949;48.152;11.528;2022-12-29T06:08:52;11.50;38.50
3868;DHT22;1949;48.152;11.528;2022-12-29T06:11:17;11.40;38.50
3868;DHT22;1949;48.152;11.528;2022-12-29T06:13:43;11.50;38.50
3868;DHT22;1949;48.152;11.528;2022-12-29T06:16:09;11.50;38.50
3868;DHT22;1949;48.152;11.528;2022-12-29T06:18:34;11.50;38.40
3868;DHT22;1949;48.152;11.528;2022-12-29T06:21:04;11.50;38.40
3868;DHT22;1949;48.152;11.528;2022-12-29T06:23:30;11.60;38.40
3868;DHT22;1949;48.152;11.528;2022-12-29T06:25:56;11.60;38.40
3868;DHT22;1949;48.152;11.528;2022-12-29T06:28:23;11.60;38.40
3868;DHT22;1949;48.152;11.528;2022-12-29T06:30:49;11.60;38.40
3868;DHT22;1949;48.152;11.528;2022-12-29T06:33:15;11.60;38.40
3868;DHT22;1949;48.152;11.528;2022-12-29T06:35:42;11.60;38.30
3868;DHT22;1949;48.152;11.528;2022-12-29T06:38:09;11.50;38.20
3868;DHT22;1949;48.152;11.528;2022-12-29T06:40:34;11.60;38.30
3868;DHT22;1949;48.152;11.528;2022-12-29T06:43:00;11.60;38.30
3868;DHT22;1949;48.152;11.528;2022-12-29T06:45:26;11.60;38.30
3868;DHT22;1949;48.152;11.528;2022-12-29T06:47:51;11.60;38.20
3868;DHT22;1949;48.152;11.528;2022-12-29T06:50:17;11.60;38.20
3868;DHT22;1949;48.152;11.528;2022-12-29T06:52:43;11.60;38.20
3868;DHT22;1949;48.152;11.528;2022-12-29T06:55:09;11.60;38.20
3868;DHT22;1949;48.152;11.528;2022-12-29T06:57:34;11.60;38.10
3868;DHT22;1949;48.152;11.528;2022-12-29T07:00:00;11.60;38.10
3868;DHT22;1949;48.152;11.528;2022-12-29T07:02:26;11.60;38.10
3868;DHT22;1949;48.152;11.528;2022-12-29T07:04:52;11.60;38.20
3868;DHT22;1949;48.152;11.528;2022-12-29T07:07:19;11.60;38.20
3868;DHT22;1949;48.152;11.528;2022-12-29T07:09:46;11.60;38.20
3868;DHT22;1949;48.152;11.528;2022-12-29T07:12:11;11.60;38.20
3868;DHT22;1949;48.152;11.528;2022-12-29T07:14:37;11.50;38.00
3868;DHT22;1949;48.152;11.528;2022-12-29T07:17:03;11.50;38.00
3868;DHT22;1949;48.152;11.528;2022-12-29T07:19:34;11.40;38.00
3868;DHT22;1949;48.152;11.528;2022-12-29T07:22:00;11.40;38.00
3868;DHT22;1949;48.152;11.528;2022-12-29T07:24:26;11.40;38.10
3868;DHT22;1949;48.152;11.528;2022-12-29T07:26:52;11.40;38.20
3868;DHT22;1949;48.152;11.528;2022-12-29T07:29:18;11.40;38.10
3868;DHT22;1949;48.152;11.528;2022-12-29T07:31:44;11.40;38.10
3868;DHT22;1949;48.152;11.528;2022-12-29T07:34:10;11.50;38.20
3868;DHT22;1949;48.152;11.528;2022-12-29T07:36:36;11.40;38.10
3868;DHT22;1949;48.152;11.528;2022-12-29T07:39:03;11.40;38.10
3868;DHT22;1949;48.152;11.528;2022-12-29T07:41:29;11.50;38.10
3868;DHT22;1949;48.152;11.528;2022-12-29T07:43:55;11.50;38.00
3868;DHT22;1949;48.152;11.528;2022-12-29T07:46:21;11.50;38.00
3868;DHT22;1949;48.152;11.528;2022-12-29T07:48:47;11.40;38.00
3868;DHT22;1949;48.152;11.528;2022-12-29T07:51:13;11.40;38.00
3868;DHT22;1949;48.152;11.528;2022-12-29T07:53:38;11.40;37.90
3868;DHT22;1949;48.152;11.528;2022-12-29T07:56:05;11.40;37.90
3868;DHT22;1949;48.152;11.528;2022-12-29T07:58:31;11.40;37.90
3868;DHT22;1949;48.152;11.528;2022-12-29T08:00:57;11.40;37.90
3868;DHT22;1949;48.152;11.528;2022-12-29T08:03:23;11.50;38.10
3868;DHT22;1949;48.152;11.528;2022-12-29T08:05:50;11.50;37.90
3868;DHT22;1949;48.152;11.528;2022-12-29T08:08:15;11.50;38.00
3868;DHT22;1949;48.152;11.528;2022-12-29T08:10:41;11.50;37.90
3868;DHT22;1949;48.152;11.528;2022-12-29T08:13:07;11.50;37.90
3868;DHT22;1949;48.152;11.528;2022-12-29T08:15:33;11.50;37.90
3868;DHT22;1949;48.152;11.528;2022-12-29T08:17:58;11.60;38.00
3868;DHT22;1949;48.152;11.528;2022-12-29T08:20:24;11.70;38.00
3868;DHT22;1949;48.152;11.528;2022-12-29T08:22:50;11.60;37.80
3868;DHT22;1949;48.152;11.528;2022-12-29T08:25:17;11.60;37.90
3868;DHT22;1949;48.152;11.528;2022-12-29T08:27:45;11.60;37.80
3868;DHT22;1949;48.152;11.528;2022-12-29T08:30:11;11.60;37.70
3868;DHT22;1949;48.152;11.528;2022-12-29T08:32:37;11.70;37.80
3868;DHT22;1949;48.152;11.528;2022-12-29T08:35:02;11.70;37.80
3868;DHT22;1949;48.152;11.528;2022-12-29T08:37:28;11.70;37.70
3868;DHT22;1949;48.152;11.528;2022-12-29T08:39:54;11.80;37.80
3868;DHT22;1949;48.152;11.528;2022-12-29T08:42:20;11.80;37.70
3868;DHT22;1949;48.152;11.528;2022-12-29T08:44:45;11.80;37.60
3868;DHT22;1949;48.152;11.528;2022-12-29T08:47:11;11.90;37.80
3868;DHT22;1949;48.152;11.528;2022-12-29T08:49:39;11.90;37.70
3868;DHT22;1949;48.152;11.528;2022-12-29T08:52:04;11.90;37.60
3868;DHT22;1949;48.152;11.528;2022-12-29T08:54:30;12.00;37.70
3868;DHT22;1949;48.152;11.528;2022-12-29T08:56:57;12.00;37.60
3868;DHT22;1949;48.152;11.528;2022-12-29T08:59:22;12.00;37.50
3868;DHT22;1949;48.152;11.528;2022-12-29T09:01:48;12.00;37.60
3868;DHT22;1949;48.152;11.528;2022-12-29T09:04:14;12.10;37.50
3868;DHT22;1949;48.152;11.528;2022-12-29T09:06:39;12.10;37.50
3868;DHT22;1949;48.152;11.528;2022-12-29T09:09:05;12.20;37.50
3868;DHT22;1949;48.152;11.528;2022-12-29T09:11:31;12.20;37.50
3868;DHT22;1949;48.152;11.528;2022-12-29T09:13:57;12.20;37.30
3868;DHT22;1949;48.152;11.528;2022-12-29T09:16:24;12.20;37.30
3868;DHT22;1949;48.152;11.528;2022-12-29T09:18:51;12.30;37.30
3868;DHT22;1949;48.152;11.528;2022-12-29T09:21:17;12.30;37.30
3868;DHT22;1949;48.152;11.528;2022-12-29T09:23:42;12.30;37.20
3868;DHT22;1949;48.152;11.528;2022-12-29T09:26:08;12.30;37.80
3868;DHT22;1949;48.152;11.528;2022-12-29T09:28:35;12.40;37.20
3868;DHT22;1949;48.152;11.528;2022-12-29T09:31:01;12.40;37.20
3868;DHT22;1949;48.152;11.528;2022-12-29T09:33:27;12.40;37.20
3868;DHT22;1949;48.152;11.528;2022-12-29T09:35:56;12.50;37.20
3868;DHT22;1949;48.152;11.528;2022-12-29T09:38:23;12.50;37.20
3868;DHT22;1949;48.152;11.528;2022-12-29T09:40:52;12.60;37.30
3868;DHT22;1949;48.152;11.528;2022-12-29T09:43:27;12.60;37.10
3868;DHT22;1949;48.152;11.528;2022-12-29T09:46:22;12.60;37.20
3868;DHT22;1949;48.152;11.528;2022-12-29T09:49:13;12.70;37.20
3868;DHT22;1949;48.152;11.528;2022-12-29T09:51:43;12.70;37.10
3868;DHT22;1949;48.152;11.528;2022-12-29T09:55:05;12.80;37.10
3868;DHT22;1949;48.152;11.528;2022-12-29T09:57:32;12.80;37.10
3868;DHT22;1949;48.152;11.528;2022-12-29T10:00:05;12.80;36.90
3868;DHT22;1949;48.152;11.528;2022-12-29T10:04:58;12.90;37.10
3868;DHT22;1949;48.152;11.528;2022-12-29T10:07:33;12.90;37.00
3868;DHT22;1949;48.152;11.528;2022-12-29T10:10:28;12.90;37.00
3868;DHT22;1949;48.152;11.528;2022-12-29T10:13:55;13.00;37.10
3868;DHT22;1949;48.152;11.528;2022-12-29T10:15:57;13.00;37.00
3868;DHT22;1949;48.152;11.528;2022-12-29T10:24:19;13.10;37.10
3868;DHT22;1949;48.152;11.528;2022-12-29T10:26:48;13.10;37.00
3868;DHT22;1949;48.152;11.528;2022-12-29T10:29:19;13.10;37.00
3868;DHT22;1949;48.152;11.528;2022-12-29T10:32:09;13.10;36.90
3868;DHT22;1949;48.152;11.528;2022-12-29T10:34:46;13.20;37.10
3868;DHT22;1949;48.152;11.528;2022-12-29T10:40:18;13.20;36.90
3868;DHT22;1949;48.152;11.528;2022-12-29T10:42:53;13.20;36.80
3868;DHT22;1949;48.152;11.528;2022-12-29T10:45:19;13.30;36.80
3868;DHT22;1949;48.152;11.528;2022-12-29T10:48:10;13.30;36.90
3868;DHT22;1949;48.152;11.528;2022-12-29T10:50:40;13.40;36.90
3868;DHT22;1949;48.152;11.528;2022-12-29T10:53:15;13.40;36.70
3868;DHT22;1949;48.152;11.528;2022-12-29T10:55:44;13.40;36.60
3868;DHT22;1949;48.152;11.528;2022-12-29T10:58:13;13.40;36.70
3868;DHT22;1949;48.152;11.528;2022-12-29T11:00:40;13.50;37.20
3868;DHT22;1949;48.152;11.528;2022-12-29T11:06:11;13.50;36.60
3868;DHT22;1949;48.152;11.528;2022-12-29T11:09:02;13.50;36.60
3868;DHT22;1949;48.152;11.528;2022-12-29T11:11:36;13.60;36.80
3868;DHT22;1949;48.152;11.528;2022-12-29T11:14:13;13.60;36.50
3868;DHT22;1949;48.152;11.528;2022-12-29T11:16:40;13.60;36.40
3868;DHT22;1949;48.152;11.528;2022-12-29T11:19:20;13.60;36.40
3868;DHT22;1949;48.152;11.528;2022-12-29T11:21:47;13.80;36.60
3868;DHT22;1949;48.152;11.528;2022-12-29T11:24:24;13.90;36.60
3868;DHT22;1949;48.152;11.528;2022-12-29T11:26:55;14.00;36.40
3868;DHT22;1949;48.152;11.528;2022-12-29T11:29:25;14.10;36.40
3868;DHT22;1949;48.152;11.528;2022-12-29T11:31:58;14.20;36.30
3868;DHT22;1949;48.152;11.528;2022-12-29T11:34:35;14.20;36.20
3868;DHT22;1949;48.152;11.528;2022-12-29T11:37:09;14.20;36.10
3868;DHT22;1949;48.152;11.528;2022-12-29T11:42:22;14.40;36.20
3868;DHT22;1949;48.152;11.528;2022-12-29T11:44:50;14.50;36.20
3868;DHT22;1949;48.152;11.528;2022-12-29T11:47:29;14.50;36.00
3868;DHT22;1949;48.152;11.528;2022-12-29T11:50:01;14.60;35.80
3868;DHT22;1949;48.152;11.528;2022-12-29T11:52:33;14.60;35.70
3868;DHT22;1949;48.152;11.528;2022-12-29T11:55:03;14.70;35.80
3868;DHT22;1949;48.152;11.528;2022-12-29T11:57:30;14.80;35.70
3868;DHT22;1949;48.152;11.528;2022-12-29T12:00:01;14.90;35.50
3868;DHT22;1949;48.152;11.528;2022-12-29T12:05:22;15.10;35.50
3868;DHT22;1949;48.152;11.528;2022-12-29T12:08:03;15.20;35.60
3868;DHT22;1949;48.152;11.528;2022-12-29T12:10:44;15.40;35.30
3868;DHT22;1949;48.152;11.528;2022-12-29T12:13:25;15.50;35.20
3868;DHT22;1949;48.152;11.528;2022-12-29T12:16:02;15.60;35.00
3868;DHT22;1949;48.152;11.528;2022-12-29T12:21:13;15.80;35.30
3868;DHT22;1949;48.152;11.528;2022-12-29T12:26:14;15.90;34.80
3868;DHT22;1949;48.152;11.528;2022-12-29T12:31:35;15.80;34.60
3868;DHT22;1949;48.152;11.528;2022-12-29T12:34:10;15.90;34.80
3868;DHT22;1949;48.152;11.528;2022-12-29T12:45:42;16.60;34.90
3868;DHT22;1949;48.152;11.528;2022-12-29T12:48:17;16.70;34.70
3868;DHT22;1949;48.152;11.528;2022-12-29T12:58:57;16.40;34.90
3868;DHT22;1949;48.152;11.528;2022-12-29T13:01:28;16.40;35.00
3868;DHT22;1949;48.152;11.528;2022-12-29T13:06:41;16.30;35.00
3868;DHT22;1949;48.152;11.528;2022-12-29T13:09:38;16.20;35.00
3868;DHT22;1949;48.152;11.528;2022-12-29T13:12:30;16.10;35.20
3868;DHT22;1949;48.152;11.528;2022-12-29T13:26:03;15.90;35.40
3868;DHT22;1949;48.152;11.528;2022-12-29T13:29:16;15.90;35.50
3868;DHT22;1949;48.152;11.528;2022-12-29T13:34:26;15.80;35.50
3868;DHT22;1949;48.152;11.528;2022-12-29T13:36:56;15.80;35.70
3868;DHT22;1949;48.152;11.528;2022-12-29T13:39:48;15.70;35.70
3868;DHT22;1949;48.152;11.528;2022-12-29T13:42:16;15.70;35.90
3868;DHT22;1949;48.152;11.528;2022-12-29T13:44:48;15.70;35.90
3868;DHT22;1949;48.152;11.528;2022-12-29T13:50:12;15.70;35.90
3868;DHT22;1949;48.152;11.528;2022-12-29T13:52:51;15.70;35.90
3868;DHT22;1949;48.152;11.528;2022-12-29T13:55:35;15.70;36.00
3868;DHT22;1949;48.152;11.528;2022-12-29T14:01:16;15.70;36.10
3868;DHT22;1949;48.152;11.528;2022-12-29T14:03:53;15.70;36.40
3868;DHT22;1949;48.152;11.528;2022-12-29T14:06:26;15.70;36.10
3868;DHT22;1949;48.152;11.528;2022-12-29T14:11:51;15.70;36.20
3868;DHT22;1949;48.152;11.528;2022-12-29T14:14:27;15.70;36.20
3868;DHT22;1949;48.152;11.528;2022-12-29T14:16:54;15.70;36.30
3868;DHT22;1949;48.152;11.528;2022-12-29T14:19:31;15.70;36.30
3868;DHT22;1949;48.152;11.528;2022-12-29T14:22:02;15.70;36.30
3868;DHT22;1949;48.152;11.528;2022-12-29T14:29:49;15.70;36.40
3868;DHT22;1949;48.152;11.528;2022-12-29T14:34:58;15.60;36.50
3868;DHT22;1949;48.152;11.528;2022-12-29T14:37:28;15.60;36.50
3868;DHT22;1949;48.152;11.528;2022-12-29T14:40:22;15.60;36.60
3868;DHT22;1949;48.152;11.528;2022-12-29T14:42:53;15.60;36.70
3868;DHT22;1949;48.152;11.528;2022-12-29T14:45:25;15.60;36.80
3868;DHT22;1949;48.152;11.528;2022-12-29T14:47:52;15.50;36.70
3868;DHT22;1949;48.152;11.528;2022-12-29T14:50:39;15.50;36.80
3868;DHT22;1949;48.152;11.528;2022-12-29T14:53:39;15.50;36.80
3868;DHT22;1949;48.152;11.528;2022-12-29T14:55:57;15.50;36.90
3868;DHT22;1949;48.152;11.528;2022-12-29T14:58:30;15.50;36.70
3868;DHT22;1949;48.152;11.528;2022-12-29T15:00:59;15.50;36.80
3868;DHT22;1949;48.152;11.528;2022-12-29T15:03:31;15.50;36.80
3868;DHT22;1949;48.152;11.528;2022-12-29T15:06:10;15.50;36.60
3868;DHT22;1949;48.152;11.528;2022-12-29T15:09:06;15.50;36.50
3868;DHT22;1949;48.152;11.528;2022-12-29T15:14:02;15.40;36.20
3868;DHT22;1949;48.152;11.528;2022-12-29T15:16:31;15.40;36.10
3868;DHT22;1949;48.152;11.528;2022-12-29T15:18:58;15.30;35.90
3868;DHT22;1949;48.152;11.528;2022-12-29T15:21:27;15.30;35.90
3868;DHT22;1949;48.152;11.528;2022-12-29T15:23:54;15.20;35.80
3868;DHT22;1949;48.152;11.528;2022-12-29T15:26:21;15.20;35.80
3868;DHT22;1949;48.152;11.528;2022-12-29T15:28:51;15.10;35.80
3868;DHT22;1949;48.152;11.528;2022-12-29T15:31:24;15.10;35.80
3868;DHT22;1949;48.152;11.528;2022-12-29T15:33:53;15.10;35.70
3868;DHT22;1949;48.152;11.528;2022-12-29T15:36:28;15.10;35.80
3868;DHT22;1949;48.152;11.528;2022-12-29T15:38:56;15.00;35.70
3868;DHT22;1949;48.152;11.528;2022-12-29T15:41:50;15.00;35.70
3868;DHT22;1949;48.152;11.528;2022-12-29T15:44:42;15.00;35.70
3868;DHT22;1949;48.152;11.528;2022-12-29T15:47:29;15.00;35.70
3868;DHT22;1949;48.152;11.528;2022-12-29T15:50:09;14.90;35.70
3868;DHT22;1949;48.152;11.528;2022-12-29T15:52:40;14.80;35.60
3868;DHT22;1949;48.152;11.528;2022-12-29T15:55:34;14.80;35.60
3868;DHT22;1949;48.152;11.528;2022-12-29T15:58:03;14.80;35.70
3868;DHT22;1949;48.152;11.528;2022-12-29T16:00:33;14.70;35.60
3868;DHT22;1949;48.152;11.528;2022-12-29T16:03:02;14.70;35.60
3868;DHT22;1949;48.152;11.528;2022-12-29T16:05:36;14.60;35.50
3868;DHT22;1949;48.152;11.528;2022-12-29T16:08:03;14.60;35.50
3868;DHT22;1949;48.152;11.528;2022-12-29T16:10:53;14.60;35.70
3868;DHT22;1949;48.152;11.528;2022-12-29T16:15:59;14.60;36.30
3868;DHT22;1949;48.152;11.528;2022-12-29T16:18:32;14.60;35.70
3868;DHT22;1949;48.152;11.528;2022-12-29T16:21:01;14.60;35.70
3868;DHT22;1949;48.152;11.528;2022-12-29T16:23:28;14.60;35.70
3868;DHT22;1949;48.152;11.528;2022-12-29T16:25:56;14.60;35.80
3868;DHT22;1949;48.152;11.528;2022-12-29T16:28:25;14.60;35.80
3868;DHT22;1949;48.152;11.528;2022-12-29T16:31:20;14.60;35.80
3868;DHT22;1949;48.152;11.528;2022-12-29T16:33:55;14.60;35.90
3868;DHT22;1949;48.152;11.528;2022-12-29T16:36:34;14.60;35.90
3868;DHT22;1949;48.152;11.528;2022-12-29T16:39:19;14.50;36.00
3868;DHT22;1949;48.152;11.528;2022-12-29T16:41:50;14.50;36.60
3868;DHT22;1949;48.152;11.528;2022-12-29T16:44:27;14.50;36.10
3868;DHT22;1949;48.152;11.528;2022-12-29T16:49:32;14.50;36.30
3868;DHT22;1949;48.152;11.528;2022-12-29T16:52:13;14.50;36.40
3868;DHT22;1949;48.152;11.528;2022-12-29T16:54:39;14.50;36.50
3868;DHT22;1949;48.152;11.528;2022-12-29T16:57:08;14.50;36.50
3868;DHT22;1949;48.152;11.528;2022-12-29T16:59:38;14.50;36.60
3868;DHT22;1949;48.152;11.528;2022-12-29T17:02:14;14.50;36.40
3868;DHT22;1949;48.152;11.528;2022-12-29T17:04:45;14.50;36.40
3868;DHT22;1949;48.152;11.528;2022-12-29T17:07:20;14.50;36.50
3868;DHT22;1949;48.152;11.528;2022-12-29T17:09:46;14.50;36.60
3868;DHT22;1949;48.152;11.528;2022-12-29T17:12:21;14.50;36.60
3868;DHT22;1949;48.152;11.528;2022-12-29T17:17:32;14.50;36.80
3868;DHT22;1949;48.152;11.528;2022-12-29T17:20:15;14.50;37.00
3868;DHT22;1949;48.152;11.528;2022-12-29T17:22:48;14.50;36.90
3868;DHT22;1949;48.152;11.528;2022-12-29T17:25:18;14.50;37.00
3868;DHT22;1949;48.152;11.528;2022-12-29T17:27:51;14.50;37.00
3868;DHT22;1949;48.152;11.528;2022-12-29T17:30:24;14.50;37.10
3868;DHT22;1949;48.152;11.528;2022-12-29T17:33:13;14.50;37.20
3868;DHT22;1949;48.152;11.528;2022-12-29T17:35:40;14.50;37.00
3868;DHT22;1949;48.152;11.528;2022-12-29T17:38:28;14.50;37.10
3868;DHT22;1949;48.152;11.528;2022-12-29T17:41:00;14.50;37.20
3868;DHT22;1949;48.152;11.528;2022-12-29T17:43:28;14.40;37.20
3868;DHT22;1949;48.152;11.528;2022-12-29T17:45:58;14.40;37.20
3868;DHT22;1949;48.152;11.528;2022-12-29T17:48:25;14.40;37.40
3868;DHT22;1949;48.152;11.528;2022-12-29T17:50:52;14.40;37.40
3868;DHT22;1949;48.152;11.528;2022-12-29T17:53:25;14.40;37.40
3868;DHT22;1949;48.152;11.528;2022-12-29T17:55:57;14.40;37.50
3868;DHT22;1949;48.152;11.528;2022-12-29T17:58:28;14.30;37.40
3868;DHT22;1949;48.152;11.528;2022-12-29T18:01:00;14.30;37.60
3868;DHT22;1949;48.152;11.528;2022-12-29T18:03:29;14.40;37.60
3868;DHT22;1949;48.152;11.528;2022-12-29T18:05:56;14.30;37.50
3868;DHT22;1949;48.152;11.528;2022-12-29T18:08:23;14.30;37.60
3868;DHT22;1949;48.152;11.528;2022-12-29T18:10:53;14.30;37.70